Catterick Garrison, United Kingdom
Current Conditions -  °F | °C
As of 3:50 PM on Tuesday 21 Oct 2014 (Local Time) from EGXE Reporting Station
Few Clouds Few Clouds  
Wind Chill: 50°   Ceiling: Unl
Heat Index: 50°   Visibility: 6mi
Dew Point: 30°   Wind: 30mph
Humidity: 47%   Direction: 300°WNW
Pressure: 29.62"   Gusts: 44mph
Location:  54.38°N, 1.74°W
Report Text: EGXE 211450Z 30026G38KT 9999 FEW030 10/M01 Q1003 BLU NOSIG
Loading
Personal Weather Stations






























Interactive Weather Map
Tropical Storm Tracking
New forecast layout! Learn more

10-Day Weather Forecast

Advertisements
Track Severe Weather on mobile